This is the latest recevied weather packets stored in our database for station/object W9QL-13. If no packets are shown the sender has not sent any weather packets the latest 10 day(s).
| Time | Temp. | Humidity | Pressure | Rain* | Wind** | Luminosity | Snow |
|---|---|---|---|---|---|---|---|
| 1778195268 | 10° C | 75% | 1008.9 hPa | 0 mm | - | - | - |
| 1778194966 | 10° C | 76% | 1009 hPa | 0 mm | - | - | - |
| 1778194667 | 10° C | 76% | 1009 hPa | 0 mm | - | - | - |
| 1778194366 | 9.44° C | 74% | 1009.3 hPa | 0 mm | - | - | - |
| 1778194035 | 10° C | 73% | 1009.1 hPa | 0 mm | - | - | - |
| 1778193736 | 10° C | 72% | 1009 hPa | 0 mm | - | - | - |
| 1778193405 | 10.56° C | 69% | 1009 hPa | 0 mm | - | - | - |
| 1778193075 | 10.56° C | 67% | 1009.1 hPa | 0 mm | - | - | - |
| 1778192778 | 11.11° C | 68% | 1009.1 hPa | 0 mm | - | - | - |
| 1778192446 | 11.11° C | 66% | 1009.3 hPa | 0 mm | - | - | - |
| 1778192119 | 11.67° C | 62% | 1009.1 hPa | 0 mm | - | - | - |
| 1778191815 | 12.78° C | 60% | 1008.9 hPa | 0 mm | - | - | - |
| 1778191485 | 13.33° C | 60% | 1008.8 hPa | 0 mm | - | - | - |
| 1778191155 | 13.89° C | 61% | 1008.6 hPa | 0 mm | - | - | - |
| 1778190855 | 13.89° C | 60% | 1008.6 hPa | 0 mm | - | - | - |
| 1778190555 | 13.89° C | 59% | 1008.5 hPa | 0 mm | - | - | - |
| 1778190255 | 13.89° C | 59% | 1008.3 hPa | 0 mm | - | - | - |
| 1778189925 | 13.89° C | 57% | 1008.4 hPa | 0 mm | - | - | - |
| 1778189625 | 13.89° C | 56% | 1008.4 hPa | 0 mm | - | - | - |
| 1778189325 | 13.89° C | 56% | 1008.3 hPa | 0 mm | - | - | - |
| 1778189025 | 13.89° C | 57% | 1008.2 hPa | 0 mm | - | - | - |
| 1778188695 | 13.33° C | 60% | 1008.2 hPa | 0 mm | - | - | - |
| 1778188396 | 12.78° C | 64% | 1008.2 hPa | 0 mm | - | - | - |
| 1778188065 | 12.22° C | 68% | 1008.2 hPa | 0 mm | - | - | - |
| 1778187735 | 11.67° C | 72% | 1008.4 hPa | 0 mm | - | - | - |
* Rain latest hour (hover to see other rain measurements)
** Current wind speed in m/s (hover to see current wind gust speed)